sensor_id;sensor_type;location;lat;lon;timestamp;pressure;altitude;pressure_sealevel;temperature;humidity
49949;BME280;35840;45.982;8.890;2022-10-16T00:00:54;98833.22;;;15.02;84.08
49949;BME280;35840;45.982;8.890;2022-10-16T00:03:21;98843.25;;;15.07;84.59
49949;BME280;35840;45.982;8.890;2022-10-16T00:05:53;98830.63;;;15.02;84.54
49949;BME280;35840;45.982;8.890;2022-10-16T00:08:20;98840.66;;;15.07;84.50
49949;BME280;35840;45.982;8.890;2022-10-16T00:10:47;98839.50;;;15.11;84.62
49949;BME280;35840;45.982;8.890;2022-10-16T00:13:13;98834.81;;;15.16;84.39
49949;BME280;35840;45.982;8.890;2022-10-16T00:15:40;98836.59;;;15.15;84.76
49949;BME280;35840;45.982;8.890;2022-10-16T00:18:09;98837.53;;;15.14;84.44
49949;BME280;35840;45.982;8.890;2022-10-16T00:20:36;98835.53;;;15.18;84.72
49949;BME280;35840;45.982;8.890;2022-10-16T00:23:03;98831.53;;;15.14;84.75
49949;BME280;35840;45.982;8.890;2022-10-16T00:25:32;98841.97;;;15.12;85.11
49949;BME280;35840;45.982;8.890;2022-10-16T00:28:02;98841.91;;;15.14;85.15
49949;BME280;35840;45.982;8.890;2022-10-16T00:30:29;98839.31;;;15.14;85.45
49949;BME280;35840;45.982;8.890;2022-10-16T00:32:56;98833.91;;;15.17;85.14
49949;BME280;35840;45.982;8.890;2022-10-16T00:35:23;98829.25;;;15.09;85.01
49949;BME280;35840;45.982;8.890;2022-10-16T00:37:49;98838.03;;;15.20;85.37
49949;BME280;35840;45.982;8.890;2022-10-16T00:40:16;98833.78;;;15.19;84.45
49949;BME280;35840;45.982;8.890;2022-10-16T00:42:43;98828.94;;;15.14;84.42
49949;BME280;35840;45.982;8.890;2022-10-16T00:45:10;98835.63;;;15.17;84.66
49949;BME280;35840;45.982;8.890;2022-10-16T00:47:39;98844.47;;;15.14;84.78
49949;BME280;35840;45.982;8.890;2022-10-16T00:50:10;98846.22;;;15.13;85.10
49949;BME280;35840;45.982;8.890;2022-10-16T00:52:44;98847.06;;;15.14;85.24
49949;BME280;35840;45.982;8.890;2022-10-16T00:55:12;98851.13;;;15.05;85.73
49949;BME280;35840;45.982;8.890;2022-10-16T00:57:39;98846.38;;;14.99;86.06
49949;BME280;35840;45.982;8.890;2022-10-16T01:00:09;98843.47;;;15.04;86.22
49949;BME280;35840;45.982;8.890;2022-10-16T01:02:36;98844.91;;;15.08;85.92
49949;BME280;35840;45.982;8.890;2022-10-16T01:05:04;98839.50;;;15.11;86.24
49949;BME280;35840;45.982;8.890;2022-10-16T01:12:57;98840.06;;;15.03;86.53
49949;BME280;35840;45.982;8.890;2022-10-16T01:18:09;98833.78;;;14.94;86.34
49949;BME280;35840;45.982;8.890;2022-10-16T01:20:43;98841.22;;;14.99;86.36
49949;BME280;35840;45.982;8.890;2022-10-16T01:28:52;98842.31;;;15.08;86.49
49949;BME280;35840;45.982;8.890;2022-10-16T01:31:24;98839.50;;;15.11;86.15
49949;BME280;35840;45.982;8.890;2022-10-16T01:34:09;98836.91;;;15.11;86.49
49949;BME280;35840;45.982;8.890;2022-10-16T01:36:45;98840.94;;;15.15;86.52
49949;BME280;35840;45.982;8.890;2022-10-16T01:39:16;98835.16;;;15.11;86.38
49949;BME280;35840;45.982;8.890;2022-10-16T01:41:49;98842.19;;;15.09;86.41
49949;BME280;35840;45.982;8.890;2022-10-16T01:44:32;98838.50;;;15.01;87.69
49949;BME280;35840;45.982;8.890;2022-10-16T01:47:00;98838.50;;;15.01;87.57
49949;BME280;35840;45.982;8.890;2022-10-16T01:49:30;98837.69;;;15.00;87.35
49949;BME280;35840;45.982;8.890;2022-10-16T01:52:00;98835.22;;;14.98;87.54
49949;BME280;35840;45.982;8.890;2022-10-16T01:54:30;98835.22;;;14.98;87.43
49949;BME280;35840;45.982;8.890;2022-10-16T01:56:59;98837.06;;;14.96;87.42
49949;BME280;35840;45.982;8.890;2022-10-16T01:59:29;98839.53;;;14.98;88.20
49949;BME280;35840;45.982;8.890;2022-10-16T02:02:00;98842.03;;;15.00;87.59
49949;BME280;35840;45.982;8.890;2022-10-16T02:04:53;98835.09;;;15.00;87.81
49949;BME280;35840;45.982;8.890;2022-10-16T02:07:18;98842.75;;;15.02;87.85
49949;BME280;35840;45.982;8.890;2022-10-16T02:09:44;98837.47;;;15.03;87.98
49949;BME280;35840;45.982;8.890;2022-10-16T02:14:47;98843.25;;;15.07;87.41
49949;BME280;35840;45.982;8.890;2022-10-16T02:17:16;98839.94;;;15.05;87.97
49949;BME280;35840;45.982;8.890;2022-10-16T02:19:43;98839.25;;;15.03;87.37
49949;BME280;35840;45.982;8.890;2022-10-16T02:22:23;98829.53;;;14.93;87.74
49949;BME280;35840;45.982;8.890;2022-10-16T02:30:43;98838.09;;;14.94;88.41
49949;BME280;35840;45.982;8.890;2022-10-16T02:33:12;98839.44;;;15.00;88.15
49949;BME280;35840;45.982;8.890;2022-10-16T02:35:41;98838.50;;;15.01;88.19
49949;BME280;35840;45.982;8.890;2022-10-16T02:38:10;98843.78;;;14.99;88.00
49949;BME280;35840;45.982;8.890;2022-10-16T02:40:38;98839.44;;;15.00;88.32
49949;BME280;35840;45.982;8.890;2022-10-16T02:43:06;98838.41;;;15.02;88.41
49949;BME280;35840;45.982;8.890;2022-10-16T02:45:33;98843.56;;;15.02;88.01
49949;BME280;35840;45.982;8.890;2022-10-16T02:47:59;98837.69;;;15.00;87.99
49949;BME280;35840;45.982;8.890;2022-10-16T02:50:26;98848.28;;;14.97;88.61
49949;BME280;35840;45.982;8.890;2022-10-16T02:52:53;98845.06;;;14.93;88.78
49949;BME280;35840;45.982;8.890;2022-10-16T02:55:20;98848.34;;;14.95;89.20
49949;BME280;35840;45.982;8.890;2022-10-16T02:57:46;98853.53;;;14.95;89.23
49949;BME280;35840;45.982;8.890;2022-10-16T03:00:15;98848.06;;;15.00;89.10
49949;BME280;35840;45.982;8.890;2022-10-16T03:02:43;98845.69;;;14.97;88.71
49949;BME280;35840;45.982;8.890;2022-10-16T03:05:10;98852.38;;;15.00;89.14
49949;BME280;35840;45.982;8.890;2022-10-16T03:07:37;98847.31;;;14.98;89.09
49949;BME280;35840;45.982;8.890;2022-10-16T03:10:04;98850.94;;;14.95;88.83
49949;BME280;35840;45.982;8.890;2022-10-16T03:12:31;98854.31;;;14.85;89.18
49949;BME280;35840;45.982;8.890;2022-10-16T03:14:58;98852.13;;;14.91;89.30
49949;BME280;35840;45.982;8.890;2022-10-16T03:17:25;98846.31;;;14.88;89.18
49949;BME280;35840;45.982;8.890;2022-10-16T03:19:52;98855.19;;;14.96;89.18
49949;BME280;35840;45.982;8.890;2022-10-16T03:22:19;98859.09;;;15.02;88.49
49949;BME280;35840;45.982;8.890;2022-10-16T03:24:46;98861.81;;;15.01;88.61
49949;BME280;35840;45.982;8.890;2022-10-16T03:27:12;98858.41;;;15.00;88.43
49949;BME280;35840;45.982;8.890;2022-10-16T03:29:39;98864.63;;;14.97;88.88
49949;BME280;35840;45.982;8.890;2022-10-16T03:32:05;98867.22;;;14.97;89.32
49949;BME280;35840;45.982;8.890;2022-10-16T03:34:32;98862.75;;;15.00;88.75
49949;BME280;35840;45.982;8.890;2022-10-16T03:36:59;98861.09;;;14.98;88.58
49949;BME280;35840;45.982;8.890;2022-10-16T03:39:25;98868.75;;;15.00;88.70
49949;BME280;35840;45.982;8.890;2022-10-16T03:41:52;98872.97;;;15.01;88.53
49949;BME280;35840;45.982;8.890;2022-10-16T03:44:19;98869.81;;;14.97;88.43
49949;BME280;35840;45.982;8.890;2022-10-16T03:46:45;98874.47;;;14.92;88.82
49949;BME280;35840;45.982;8.890;2022-10-16T03:49:12;98874.56;;;14.91;88.81
49949;BME280;35840;45.982;8.890;2022-10-16T03:51:38;98873.53;;;14.93;88.78
49949;BME280;35840;45.982;8.890;2022-10-16T03:54:05;98877.28;;;14.89;88.65
49949;BME280;35840;45.982;8.890;2022-10-16T03:56:32;98874.28;;;14.83;89.78
49949;BME280;35840;45.982;8.890;2022-10-16T03:58:58;98873.34;;;14.84;89.25
49949;BME280;35840;45.982;8.890;2022-10-16T04:01:25;98868.50;;;14.79;88.91
49949;BME280;35840;45.982;8.890;2022-10-16T04:03:52;98874.72;;;14.76;89.36
49949;BME280;35840;45.982;8.890;2022-10-16T04:06:18;98877.31;;;14.76;89.29
49949;BME280;35840;45.982;8.890;2022-10-16T04:08:45;98886.63;;;14.79;89.07
49949;BME280;35840;45.982;8.890;2022-10-16T04:11:11;98877.72;;;14.83;88.81
49949;BME280;35840;45.982;8.890;2022-10-16T04:13:38;98884.03;;;14.79;88.55
49949;BME280;35840;45.982;8.890;2022-10-16T04:16:05;98874.00;;;14.74;89.03
49949;BME280;35840;45.982;8.890;2022-10-16T04:18:32;98888.47;;;14.77;88.73
49949;BME280;35840;45.982;8.890;2022-10-16T04:21:03;98889.44;;;14.76;88.76
49949;BME280;35840;45.982;8.890;2022-10-16T04:23:30;98892.31;;;14.71;89.12
49949;BME280;35840;45.982;8.890;2022-10-16T04:25:57;98892.63;;;14.67;89.10
49949;BME280;35840;45.982;8.890;2022-10-16T04:28:24;98897.38;;;14.60;89.09
49949;BME280;35840;45.982;8.890;2022-10-16T04:30:50;98897.00;;;14.66;88.92
49949;BME280;35840;45.982;8.890;2022-10-16T04:33:17;98904.22;;;14.61;89.11
49949;BME280;35840;45.982;8.890;2022-10-16T04:35:44;98908.50;;;14.62;88.93
49949;BME280;35840;45.982;8.890;2022-10-16T04:38:10;98904.13;;;14.62;89.11
49949;BME280;35840;45.982;8.890;2022-10-16T04:40:37;98897.47;;;14.58;89.11
49949;BME280;35840;45.982;8.890;2022-10-16T04:43:04;98906.91;;;14.59;88.63
49949;BME280;35840;45.982;8.890;2022-10-16T04:45:32;98911.25;;;14.59;88.92
49949;BME280;35840;45.982;8.890;2022-10-16T04:47:59;98907.72;;;14.60;88.84
49949;BME280;35840;45.982;8.890;2022-10-16T04:50:25;98906.72;;;14.62;89.03
49949;BME280;35840;45.982;8.890;2022-10-16T04:53:05;98911.78;;;14.64;88.95
49949;BME280;35840;45.982;8.890;2022-10-16T04:55:31;98906.59;;;14.64;88.79
49949;BME280;35840;45.982;8.890;2022-10-16T04:57:58;98904.22;;;14.61;88.92
49949;BME280;35840;45.982;8.890;2022-10-16T05:00:25;98904.22;;;14.61;89.00
49949;BME280;35840;45.982;8.890;2022-10-16T05:02:52;98907.72;;;14.60;89.00
49949;BME280;35840;45.982;8.890;2022-10-16T05:05:19;98907.56;;;14.63;88.65
49949;BME280;35840;45.982;8.890;2022-10-16T05:07:47;98907.72;;;14.60;89.12
49949;BME280;35840;45.982;8.890;2022-10-16T05:10:14;98908.28;;;14.65;88.99
49949;BME280;35840;45.982;8.890;2022-10-16T05:12:40;98908.50;;;14.62;89.01
49949;BME280;35840;45.982;8.890;2022-10-16T05:15:07;98908.38;;;14.63;89.16
49949;BME280;35840;45.982;8.890;2022-10-16T05:17:34;98912.75;;;14.63;89.17
49949;BME280;35840;45.982;8.890;2022-10-16T05:20:04;98915.94;;;14.67;88.88
49949;BME280;35840;45.982;8.890;2022-10-16T05:22:31;98915.22;;;14.65;88.93
49949;BME280;35840;45.982;8.890;2022-10-16T05:24:58;98916.31;;;14.60;89.09
49949;BME280;35840;45.982;8.890;2022-10-16T05:27:25;98916.03;;;14.65;89.44
49949;BME280;35840;45.982;8.890;2022-10-16T05:29:52;98910.88;;;14.65;89.02
49949;BME280;35840;45.982;8.890;2022-10-16T05:32:18;98920.88;;;14.70;89.13
49949;BME280;35840;45.982;8.890;2022-10-16T05:34:45;98919.84;;;14.72;89.14
49949;BME280;35840;45.982;8.890;2022-10-16T05:37:14;98918.72;;;14.63;89.19
49949;BME280;35840;45.982;8.890;2022-10-16T05:39:41;98921.59;;;14.59;89.39
49949;BME280;35840;45.982;8.890;2022-10-16T05:42:07;98924.31;;;14.44;90.49
49949;BME280;35840;45.982;8.890;2022-10-16T05:44:34;98929.88;;;14.51;90.14
49949;BME280;35840;45.982;8.890;2022-10-16T05:47:01;98918.72;;;14.51;90.00
49949;BME280;35840;45.982;8.890;2022-10-16T05:49:27;98939.31;;;14.52;90.44
49949;BME280;35840;45.982;8.890;2022-10-16T05:51:54;98941.06;;;14.52;90.67
49949;BME280;35840;45.982;8.890;2022-10-16T05:54:20;98944.47;;;14.52;90.73
49949;BME280;35840;45.982;8.890;2022-10-16T05:56:47;98947.59;;;14.57;90.58
49949;BME280;35840;45.982;8.890;2022-10-16T05:59:14;98936.41;;;14.57;90.14
49949;BME280;35840;45.982;8.890;2022-10-16T06:01:40;98946.38;;;14.63;90.23
49949;BME280;35840;45.982;8.890;2022-10-16T06:04:08;98952.25;;;14.65;89.97
49949;BME280;35840;45.982;8.890;2022-10-16T06:06:40;98958.16;;;14.67;89.73
49949;BME280;35840;45.982;8.890;2022-10-16T06:09:07;98951.44;;;14.65;89.75
49949;BME280;35840;45.982;8.890;2022-10-16T06:11:33;98961.47;;;14.69;89.58
49949;BME280;35840;45.982;8.890;2022-10-16T06:14:01;98960.13;;;14.63;90.40
49949;BME280;35840;45.982;8.890;2022-10-16T06:16:34;98966.53;;;14.58;90.71
49949;BME280;35840;45.982;8.890;2022-10-16T06:19:01;98969.66;;;14.63;90.60
49949;BME280;35840;45.982;8.890;2022-10-16T06:21:28;98968.81;;;14.62;90.99
49949;BME280;35840;45.982;8.890;2022-10-16T06:23:56;98956.16;;;14.58;91.08
49949;BME280;35840;45.982;8.890;2022-10-16T06:26:26;98974.53;;;14.68;91.25
49949;BME280;35840;45.982;8.890;2022-10-16T06:28:58;98967.69;;;14.67;90.98
49949;BME280;35840;45.982;8.890;2022-10-16T06:31:26;98979.19;;;14.75;91.07
49949;BME280;35840;45.982;8.890;2022-10-16T06:33:54;98979.81;;;14.79;90.86
49949;BME280;35840;45.982;8.890;2022-10-16T06:36:23;98981.53;;;14.78;91.01
49949;BME280;35840;45.982;8.890;2022-10-16T06:38:51;98982.41;;;14.79;91.55
49949;BME280;35840;45.982;8.890;2022-10-16T06:41:20;98984.25;;;14.77;91.29
49949;BME280;35840;45.982;8.890;2022-10-16T06:43:47;98992.44;;;14.84;91.74
49949;BME280;35840;45.982;8.890;2022-10-16T06:46:17;98997.50;;;14.85;91.38
49949;BME280;35840;45.982;8.890;2022-10-16T06:48:44;99000.19;;;14.84;92.95
49949;BME280;35840;45.982;8.890;2022-10-16T06:51:13;99005.25;;;14.85;92.91
49949;BME280;35840;45.982;8.890;2022-10-16T06:53:43;99007.03;;;14.85;92.84
49949;BME280;35840;45.982;8.890;2022-10-16T06:56:27;99010.22;;;14.88;92.66
49949;BME280;35840;45.982;8.890;2022-10-16T06:58:56;99011.78;;;14.91;92.85
49949;BME280;35840;45.982;8.890;2022-10-16T07:01:24;99020.28;;;14.93;92.89
49949;BME280;35840;45.982;8.890;2022-10-16T07:03:51;99016.56;;;14.97;92.55
49949;BME280;35840;45.982;8.890;2022-10-16T07:06:20;99027.63;;;14.99;92.58
49949;BME280;35840;45.982;8.890;2022-10-16T07:08:47;99030.34;;;14.97;92.75
49949;BME280;35840;45.982;8.890;2022-10-16T07:11:16;99029.41;;;14.98;92.61
49949;BME280;35840;45.982;8.890;2022-10-16T07:13:44;99031.03;;;15.00;92.99
49949;BME280;35840;45.982;8.890;2022-10-16T07:16:20;99039.22;;;15.06;92.28
49949;BME280;35840;45.982;8.890;2022-10-16T07:18:47;99034.88;;;15.07;92.25
49949;BME280;35840;45.982;8.890;2022-10-16T07:21:18;99045.22;;;15.07;92.92
49949;BME280;35840;45.982;8.890;2022-10-16T07:23:50;99045.97;;;15.09;92.46
49949;BME280;35840;45.982;8.890;2022-10-16T07:26:16;99050.22;;;15.10;92.15
49949;BME280;35840;45.982;8.890;2022-10-16T07:28:43;99053.53;;;15.12;92.34
49949;BME280;35840;45.982;8.890;2022-10-16T07:31:12;99054.16;;;15.15;91.42
49949;BME280;35840;45.982;8.890;2022-10-16T07:33:40;99051.56;;;15.15;91.65
49949;BME280;35840;45.982;8.890;2022-10-16T07:36:13;99053.94;;;15.19;91.27
49949;BME280;35840;45.982;8.890;2022-10-16T07:38:42;99053.94;;;15.19;91.41
49949;BME280;35840;45.982;8.890;2022-10-16T07:41:11;99063.28;;;15.21;91.78
49949;BME280;35840;45.982;8.890;2022-10-16T07:43:38;99070.31;;;15.19;91.14
49949;BME280;35840;45.982;8.890;2022-10-16T07:46:05;99064.81;;;15.11;90.77
49949;BME280;35840;45.982;8.890;2022-10-16T07:48:34;99072.19;;;15.17;91.14
49949;BME280;35840;45.982;8.890;2022-10-16T07:51:02;99065.84;;;15.21;91.53
49949;BME280;35840;45.982;8.890;2022-10-16T07:53:30;99063.97;;;15.23;91.32
49949;BME280;35840;45.982;8.890;2022-10-16T07:56:04;99068.94;;;15.26;90.82
49949;BME280;35840;45.982;8.890;2022-10-16T07:58:32;99072.28;;;15.28;90.61
49949;BME280;35840;45.982;8.890;2022-10-16T08:01:03;99075.69;;;15.29;91.06
49949;BME280;35840;45.982;8.890;2022-10-16T08:03:30;99052.59;;;15.13;90.77
49949;BME280;35840;45.982;8.890;2022-10-16T08:05:57;99074.66;;;15.31;91.01
49949;BME280;35840;45.982;8.890;2022-10-16T08:08:25;99080.34;;;15.37;91.28
49949;BME280;35840;45.982;8.890;2022-10-16T08:10:52;99083.56;;;15.40;91.43
49949;BME280;35840;45.982;8.890;2022-10-16T08:13:19;99080.03;;;15.41;92.04
49949;BME280;35840;45.982;8.890;2022-10-16T08:15:45;99079.09;;;15.42;91.17
49949;BME280;35840;45.982;8.890;2022-10-16T08:18:14;99084.19;;;15.44;90.71
49949;BME280;35840;45.982;8.890;2022-10-16T08:20:42;99082.09;;;15.49;91.17
49949;BME280;35840;45.982;8.890;2022-10-16T08:23:11;99079.38;;;15.50;90.98
49949;BME280;35840;45.982;8.890;2022-10-16T08:25:39;99078.34;;;15.53;91.37
49949;BME280;35840;45.982;8.890;2022-10-16T08:28:08;99081.69;;;15.55;91.08
49949;BME280;35840;45.982;8.890;2022-10-16T08:30:35;99081.38;;;15.47;91.73
49949;BME280;35840;45.982;8.890;2022-10-16T08:33:02;99089.38;;;15.44;91.06
49949;BME280;35840;45.982;8.890;2022-10-16T08:35:29;99092.22;;;15.52;91.03
49949;BME280;35840;45.982;8.890;2022-10-16T08:37:56;99087.69;;;15.56;90.66
49949;BME280;35840;45.982;8.890;2022-10-16T08:40:25;99090.91;;;15.59;90.70
49949;BME280;35840;45.982;8.890;2022-10-16T08:45:26;99090.91;;;15.59;89.91
49949;BME280;35840;45.982;8.890;2022-10-16T08:50:27;99089.72;;;15.63;89.25
49949;BME280;35840;45.982;8.890;2022-10-16T08:52:55;99099.91;;;15.66;90.25
49949;BME280;35840;45.982;8.890;2022-10-16T08:55:38;99094.28;;;15.73;90.80
49949;BME280;35840;45.982;8.890;2022-10-16T08:58:16;99095.72;;;15.77;90.84
49949;BME280;35840;45.982;8.890;2022-10-16T09:00:46;99105.97;;;15.78;91.65
49949;BME280;35840;45.982;8.890;2022-10-16T09:03:42;99098.88;;;15.82;91.85
49949;BME280;35840;45.982;8.890;2022-10-16T09:17:33;99107.81;;;16.02;90.62
49949;BME280;35840;45.982;8.890;2022-10-16T09:23:15;99110.78;;;16.09;88.27
49949;BME280;35840;45.982;8.890;2022-10-16T09:25:45;99110.78;;;16.09;87.77
49949;BME280;35840;45.982;8.890;2022-10-16T09:28:15;99104.78;;;16.08;87.54
49949;BME280;35840;45.982;8.890;2022-10-16T09:30:43;99114.44;;;16.06;87.93
49949;BME280;35840;45.982;8.890;2022-10-16T09:33:11;99115.16;;;16.08;87.79
49949;BME280;35840;45.982;8.890;2022-10-16T09:35:43;99116.25;;;16.17;88.90
49949;BME280;35840;45.982;8.890;2022-10-16T09:40:53;99120.81;;;16.26;87.26
49949;BME280;35840;45.982;8.890;2022-10-16T09:43:33;99107.22;;;16.23;87.66
49949;BME280;35840;45.982;8.890;2022-10-16T09:46:05;99113.72;;;16.28;87.29
49949;BME280;35840;45.982;8.890;2022-10-16T09:48:48;99114.22;;;16.33;87.05
49949;BME280;35840;45.982;8.890;2022-10-16T09:51:36;99117.31;;;16.39;86.61
49949;BME280;35840;45.982;8.890;2022-10-16T09:56:37;99107.66;;;16.41;85.57
49949;BME280;35840;45.982;8.890;2022-10-16T09:59:16;99109.53;;;16.39;84.92
49949;BME280;35840;45.982;8.890;2022-10-16T10:01:49;99113.94;;;16.49;86.29
49949;BME280;35840;45.982;8.890;2022-10-16T10:04:19;99116.94;;;16.56;86.39
49949;BME280;35840;45.982;8.890;2022-10-16T10:06:48;99112.19;;;16.61;86.84
49949;BME280;35840;45.982;8.890;2022-10-16T10:12:20;99109.19;;;16.67;83.77
49949;BME280;35840;45.982;8.890;2022-10-16T10:14:56;99105.66;;;16.68;84.83
49949;BME280;35840;45.982;8.890;2022-10-16T10:17:25;99107.50;;;16.66;83.48
49949;BME280;35840;45.982;8.890;2022-10-16T10:20:14;99102.56;;;16.63;83.20
49949;BME280;35840;45.982;8.890;2022-10-16T10:22:44;99102.94;;;16.70;82.66
49949;BME280;35840;45.982;8.890;2022-10-16T10:27:48;99104.13;;;16.77;82.10
49949;BME280;35840;45.982;8.890;2022-10-16T10:30:38;99099.41;;;16.82;81.44
49949;BME280;35840;45.982;8.890;2022-10-16T10:33:45;99097.53;;;16.84;82.03
49949;BME280;35840;45.982;8.890;2022-10-16T10:36:20;99098.34;;;16.85;81.77
49949;BME280;35840;45.982;8.890;2022-10-16T10:38:52;99095.94;;;16.95;82.11
49949;BME280;35840;45.982;8.890;2022-10-16T10:47:05;99095.84;;;17.19;81.95
49949;BME280;35840;45.982;8.890;2022-10-16T10:49:43;99092.44;;;17.30;79.72
49949;BME280;35840;45.982;8.890;2022-10-16T11:01:01;99076.00;;;17.52;78.59
49949;BME280;35840;45.982;8.890;2022-10-16T11:06:18;99074.22;;;17.64;78.53
49949;BME280;35840;45.982;8.890;2022-10-16T11:08:53;99078.69;;;17.73;78.17
49949;BME280;35840;45.982;8.890;2022-10-16T11:14:04;99066.28;;;17.77;73.82
49949;BME280;35840;45.982;8.890;2022-10-16T11:16:52;99067.47;;;17.72;74.64
49949;BME280;35840;45.982;8.890;2022-10-16T11:19:53;99062.03;;;17.76;76.82
49949;BME280;35840;45.982;8.890;2022-10-16T11:30:29;99057.41;;;17.79;77.80
49949;BME280;35840;45.982;8.890;2022-10-16T11:38:18;99065.53;;;17.86;78.35
49949;BME280;35840;45.982;8.890;2022-10-16T11:40:49;99059.91;;;17.92;78.01
49949;BME280;35840;45.982;8.890;2022-10-16T11:43:26;99056.78;;;17.98;76.36
49949;BME280;35840;45.982;8.890;2022-10-16T11:45:57;99051.72;;;17.97;75.95
49949;BME280;35840;45.982;8.890;2022-10-16T11:51:33;99052.41;;;17.99;77.50
49949;BME280;35840;45.982;8.890;2022-10-16T11:56:30;99040.69;;;18.04;75.81
49949;BME280;35840;45.982;8.890;2022-10-16T11:59:02;99044.34;;;18.13;76.41
49949;BME280;35840;45.982;8.890;2022-10-16T12:01:47;99032.63;;;18.19;73.20
49949;BME280;35840;45.982;8.890;2022-10-16T12:04:27;99031.16;;;18.26;73.35
49949;BME280;35840;45.982;8.890;2022-10-16T12:07:05;99034.91;;;18.33;72.26
49949;BME280;35840;45.982;8.890;2022-10-16T12:09:37;99030.03;;;18.40;71.81
49949;BME280;35840;45.982;8.890;2022-10-16T12:12:22;99036.13;;;18.50;72.13
49949;BME280;35840;45.982;8.890;2022-10-16T12:15:00;99040.94;;;18.55;71.10
49949;BME280;35840;45.982;8.890;2022-10-16T12:17:47;99038.09;;;18.58;72.79
49949;BME280;35840;45.982;8.890;2022-10-16T12:22:58;99030.59;;;18.65;74.17
49949;BME280;35840;45.982;8.890;2022-10-16T12:25:36;99027.19;;;18.74;72.94
49949;BME280;35840;45.982;8.890;2022-10-16T12:28:19;99027.78;;;18.78;70.83
49949;BME280;35840;45.982;8.890;2022-10-16T12:31:05;99025.38;;;18.86;71.21
49949;BME280;35840;45.982;8.890;2022-10-16T12:33:51;99021.22;;;18.83;72.52
49949;BME280;35840;45.982;8.890;2022-10-16T12:36:30;99026.78;;;18.90;71.43
49949;BME280;35840;45.982;8.890;2022-10-16T12:38:59;99022.97;;;18.94;71.25
49949;BME280;35840;45.982;8.890;2022-10-16T12:41:29;99025.50;;;19.05;70.90
49949;BME280;35840;45.982;8.890;2022-10-16T12:43:57;99023.31;;;19.10;69.78
49949;BME280;35840;45.982;8.890;2022-10-16T12:46:35;99023.03;;;19.14;68.26
49949;BME280;35840;45.982;8.890;2022-10-16T12:49:22;99031.25;;;19.09;68.81
49949;BME280;35840;45.982;8.890;2022-10-16T12:51:51;99029.22;;;19.13;69.61
49949;BME280;35840;45.982;8.890;2022-10-16T12:54:21;99031.03;;;19.22;67.84
49949;BME280;35840;45.982;8.890;2022-10-16T12:57:08;99029.94;;;19.24;66.77
49949;BME280;35840;45.982;8.890;2022-10-16T13:11:03;99027.56;;;19.52;69.57
49949;BME280;35840;45.982;8.890;2022-10-16T13:28:05;99026.81;;;19.81;69.54
49949;BME280;35840;45.982;8.890;2022-10-16T13:30:42;99024.88;;;19.83;68.07
49949;BME280;35840;45.982;8.890;2022-10-16T13:33:16;99025.47;;;19.97;66.07
49949;BME280;35840;45.982;8.890;2022-10-16T13:35:50;99024.09;;;20.02;66.16
49949;BME280;35840;45.982;8.890;2022-10-16T13:38:22;99020.41;;;20.05;68.15
49949;BME280;35840;45.982;8.890;2022-10-16T13:43:25;99018.06;;;20.02;66.02
49949;BME280;35840;45.982;8.890;2022-10-16T13:46:03;99028.75;;;20.08;66.77
49949;BME280;35840;45.982;8.890;2022-10-16T13:48:32;99025.47;;;20.16;68.29
49949;BME280;35840;45.982;8.890;2022-10-16T13:51:25;99027.53;;;20.22;65.72
49949;BME280;35840;45.982;8.890;2022-10-16T13:53:55;99033.56;;;20.23;65.92
49949;BME280;35840;45.982;8.890;2022-10-16T13:56:25;99034.84;;;20.19;66.44
49949;BME280;35840;45.982;8.890;2022-10-16T13:59:23;99041.53;;;20.21;66.48
49949;BME280;35840;45.982;8.890;2022-10-16T14:01:52;99037.69;;;20.25;67.95
49949;BME280;35840;45.982;8.890;2022-10-16T14:04:20;99040.31;;;20.35;69.11
49949;BME280;35840;45.982;8.890;2022-10-16T14:06:50;99038.91;;;20.41;68.53
49949;BME280;35840;45.982;8.890;2022-10-16T14:11:53;99045.09;;;20.50;64.86
49949;BME280;35840;45.982;8.890;2022-10-16T14:14:22;99041.53;;;20.51;67.10
49949;BME280;35840;45.982;8.890;2022-10-16T14:16:49;99042.22;;;20.53;66.19
49949;BME280;35840;45.982;8.890;2022-10-16T14:19:28;99039.63;;;20.53;67.26
49949;BME280;35840;45.982;8.890;2022-10-16T14:21:56;99045.22;;;20.48;65.03
49949;BME280;35840;45.982;8.890;2022-10-16T14:24:32;99048.25;;;20.53;64.15
49949;BME280;35840;45.982;8.890;2022-10-16T14:27:00;99050.31;;;20.50;65.31
49949;BME280;35840;45.982;8.890;2022-10-16T14:29:29;99053.50;;;20.53;62.18
49949;BME280;35840;45.982;8.890;2022-10-16T14:32:02;99054.59;;;20.51;65.31
49949;BME280;35840;45.982;8.890;2022-10-16T14:34:37;99054.59;;;20.51;64.79
49949;BME280;35840;45.982;8.890;2022-10-16T14:37:22;99052.94;;;20.50;64.26
49949;BME280;35840;45.982;8.890;2022-10-16T14:39:54;99059.13;;;20.49;65.47
49949;BME280;35840;45.982;8.890;2022-10-16T14:42:24;99051.31;;;20.49;64.18
49949;BME280;35840;45.982;8.890;2022-10-16T14:44:53;99052.41;;;20.46;64.70
49949;BME280;35840;45.982;8.890;2022-10-16T14:47:23;99064.22;;;20.40;64.99
49949;BME280;35840;45.982;8.890;2022-10-16T14:49:54;99061.91;;;20.37;63.52
49949;BME280;35840;45.982;8.890;2022-10-16T14:52:22;99048.41;;;20.32;65.29
49949;BME280;35840;45.982;8.890;2022-10-16T14:54:50;99064.91;;;20.42;65.83
49949;BME280;35840;45.982;8.890;2022-10-16T14:57:23;99065.88;;;20.41;64.59
49949;BME280;35840;45.982;8.890;2022-10-16T14:59:51;99063.28;;;20.41;65.62
49949;BME280;35840;45.982;8.890;2022-10-16T15:02:20;99075.34;;;20.42;65.41
49949;BME280;35840;45.982;8.890;2022-10-16T15:04:49;99068.59;;;20.40;66.57
49949;BME280;35840;45.982;8.890;2022-10-16T15:07:16;99070.53;;;20.38;64.95
49949;BME280;35840;45.982;8.890;2022-10-16T15:09:43;99065.47;;;20.36;65.82
49949;BME280;35840;45.982;8.890;2022-10-16T15:12:15;99073.97;;;20.38;66.18
49949;BME280;35840;45.982;8.890;2022-10-16T15:14:42;99063.53;;;20.28;67.19
49949;BME280;35840;45.982;8.890;2022-10-16T15:17:10;99083.31;;;20.31;68.30
49949;BME280;35840;45.982;8.890;2022-10-16T15:19:37;99085.13;;;20.30;68.85
49949;BME280;35840;45.982;8.890;2022-10-16T15:22:05;99088.28;;;20.24;67.78